createdAt,value
2019-05-01T00:00:26.574Z,970.93
2019-05-01T00:01:26.524Z,970.91
2019-05-01T00:02:26.507Z,970.95
2019-05-01T00:03:26.428Z,970.90
2019-05-01T00:04:26.428Z,970.95
2019-05-01T00:05:26.576Z,970.94
2019-05-01T00:06:26.587Z,970.83
2019-05-01T00:07:26.568Z,970.90
2019-05-01T00:08:26.562Z,970.85
2019-05-01T00:09:26.451Z,970.82
2019-05-01T00:10:26.634Z,970.88
2019-05-01T00:11:26.510Z,970.86
2019-05-01T00:12:26.645Z,970.81
2019-05-01T00:13:26.516Z,970.85
2019-05-01T00:14:26.692Z,970.81
2019-05-01T00:15:26.522Z,970.84
2019-05-01T00:16:26.470Z,970.76
2019-05-01T00:17:27.872Z,970.83
2019-05-01T00:18:26.553Z,970.84
2019-05-01T00:19:26.462Z,970.77
2019-05-01T00:20:26.442Z,970.86
2019-05-01T00:21:26.492Z,970.79
2019-05-01T00:22:26.577Z,970.86
2019-05-01T00:23:26.648Z,970.78
2019-05-01T00:24:26.497Z,970.73
2019-05-01T00:25:26.489Z,970.69
2019-05-01T00:26:26.573Z,970.75
2019-05-01T00:27:26.595Z,970.71
2019-05-01T00:28:26.658Z,970.75
2019-05-01T00:29:26.556Z,970.67
2019-05-01T00:30:30.149Z,970.76
2019-05-01T00:31:26.582Z,970.77
2019-05-01T00:32:26.569Z,970.66
2019-05-01T00:33:26.466Z,970.71
2019-05-01T00:34:26.686Z,970.60
2019-05-01T00:35:26.431Z,970.56
2019-05-01T00:36:26.669Z,970.61
2019-05-01T00:37:26.588Z,970.65
2019-05-01T00:38:26.536Z,970.51
2019-05-01T00:39:26.536Z,970.66
2019-05-01T00:40:26.536Z,970.64
2019-05-01T00:41:26.527Z,970.58
2019-05-01T00:42:26.728Z,970.54
2019-05-01T00:43:26.556Z,970.57
2019-05-01T00:44:26.532Z,970.47
2019-05-01T00:45:26.648Z,970.52
2019-05-01T00:46:26.448Z,970.53
2019-05-01T00:47:26.482Z,970.55
2019-05-01T00:48:26.517Z,970.51
2019-05-01T00:49:26.535Z,970.51
2019-05-01T00:50:26.605Z,970.50
2019-05-01T00:51:26.665Z,970.47
2019-05-01T00:52:26.700Z,970.45
2019-05-01T00:53:26.488Z,970.45
2019-05-01T00:54:26.601Z,970.47
2019-05-01T00:55:26.712Z,970.37
2019-05-01T00:56:26.617Z,970.48
2019-05-01T00:57:26.579Z,970.44
2019-05-01T00:58:26.662Z,970.45
2019-05-01T00:59:26.683Z,970.39
2019-05-01T01:00:26.521Z,970.46
2019-05-01T01:01:26.731Z,970.40
2019-05-01T01:02:26.585Z,970.43
2019-05-01T01:03:26.494Z,970.44
2019-05-01T01:04:26.477Z,970.38
2019-05-01T01:05:26.535Z,970.48
2019-05-01T01:06:26.467Z,970.46
2019-05-01T01:07:26.742Z,970.47
2019-05-01T01:08:26.494Z,970.35
2019-05-01T01:09:26.644Z,970.42
2019-05-01T01:10:26.658Z,970.26
2019-05-01T01:11:26.569Z,970.40
2019-05-01T01:12:26.570Z,970.33
2019-05-01T01:13:26.658Z,970.34
2019-05-01T01:14:26.595Z,970.29
2019-05-01T01:15:26.742Z,970.33
2019-05-01T01:16:26.558Z,970.26
2019-05-01T01:17:26.692Z,970.38
2019-05-01T01:18:26.712Z,970.35
2019-05-01T01:19:26.477Z,970.35
2019-05-01T01:20:26.554Z,970.33
2019-05-01T01:21:26.674Z,970.36
2019-05-01T01:22:26.615Z,970.40
2019-05-01T01:23:26.520Z,970.34
2019-05-01T01:24:26.605Z,970.35
2019-05-01T01:25:26.576Z,970.25
2019-05-01T01:26:26.619Z,970.30
2019-05-01T01:27:26.984Z,970.29
2019-05-01T01:28:26.713Z,970.23
2019-05-01T01:29:26.659Z,970.33
2019-05-01T01:30:26.632Z,970.28
2019-05-01T01:31:26.653Z,970.26
2019-05-01T01:32:26.616Z,970.32
2019-05-01T01:33:26.755Z,970.35
2019-05-01T01:34:26.605Z,970.28
2019-05-01T01:35:26.520Z,970.26
2019-05-01T01:36:26.662Z,970.35
2019-05-01T01:37:26.829Z,970.20
2019-05-01T01:38:26.693Z,970.34
2019-05-01T01:39:27.721Z,970.26
2019-05-01T01:40:26.856Z,970.20
2019-05-01T01:41:26.601Z,970.22
2019-05-01T01:42:26.673Z,970.26
2019-05-01T01:43:26.585Z,970.30
2019-05-01T01:44:26.560Z,970.22
2019-05-01T01:45:26.663Z,970.22
2019-05-01T01:46:26.711Z,970.31
2019-05-01T01:47:26.807Z,970.20
2019-05-01T01:48:26.523Z,970.22
2019-05-01T01:49:26.511Z,970.21
2019-05-01T01:50:26.532Z,970.24
2019-05-01T01:51:26.825Z,970.24
2019-05-01T01:52:26.562Z,970.21
2019-05-01T01:53:26.726Z,970.19
2019-05-01T01:54:26.726Z,970.16
2019-05-01T01:55:26.665Z,970.05
2019-05-01T01:56:26.727Z,970.18
2019-05-01T01:57:26.675Z,970.12
2019-05-01T01:58:26.727Z,970.08
2019-05-01T01:59:26.606Z,970.06
2019-05-01T02:00:26.695Z,970.14
2019-05-01T02:01:26.688Z,970.11
2019-05-01T02:02:26.814Z,970.15
2019-05-01T02:03:26.643Z,970.15
2019-05-01T02:04:26.659Z,970.14
2019-05-01T02:05:26.732Z,970.06
2019-05-01T02:06:26.707Z,970.18
2019-05-01T02:07:26.689Z,970.09
2019-05-01T02:08:26.687Z,970.09
2019-05-01T02:09:26.681Z,970.07
2019-05-01T02:10:26.879Z,970.14
2019-05-01T02:11:26.659Z,970.04
2019-05-01T02:12:26.715Z,970.05
2019-05-01T02:13:26.934Z,970.07
2019-05-01T02:14:26.771Z,970.06
2019-05-01T02:15:26.742Z,970.05
2019-05-01T02:16:26.882Z,970.03
2019-05-01T02:17:26.787Z,970.05
2019-05-01T02:18:26.784Z,970.08
2019-05-01T02:19:28.015Z,970.10
2019-05-01T02:20:26.906Z,970.07
2019-05-01T02:21:26.866Z,969.95
2019-05-01T02:22:26.984Z,969.95
2019-05-01T02:23:27.015Z,970.04
2019-05-01T02:24:27.047Z,969.96
2019-05-01T02:25:27.025Z,969.88
2019-05-01T02:26:26.838Z,969.94
2019-05-01T02:27:27.020Z,969.95
2019-05-01T02:28:26.879Z,969.93
2019-05-01T02:29:27.075Z,970.00
2019-05-01T02:30:26.981Z,969.93
2019-05-01T02:31:29.344Z,969.98
2019-05-01T02:32:26.963Z,969.98
2019-05-01T02:33:27.003Z,969.96
2019-05-01T02:34:26.982Z,969.95
2019-05-01T02:35:30.367Z,969.94
2019-05-01T02:36:27.031Z,969.94
2019-05-01T02:37:27.089Z,969.88
2019-05-01T02:38:27.158Z,969.91
2019-05-01T02:39:27.097Z,969.92
2019-05-01T02:40:27.031Z,969.92
2019-05-01T02:41:28.199Z,969.86
2019-05-01T02:42:28.089Z,969.88
2019-05-01T02:43:27.108Z,969.91
2019-05-01T02:44:27.054Z,969.84
2019-05-01T02:45:26.957Z,969.87
2019-05-01T02:46:27.313Z,969.94
2019-05-01T02:47:27.085Z,969.84
2019-05-01T02:48:27.099Z,969.81
2019-05-01T02:49:27.134Z,969.82
2019-05-01T02:50:27.048Z,969.86
2019-05-01T02:51:27.159Z,969.85
2019-05-01T02:52:27.079Z,969.86
2019-05-01T02:53:27.077Z,969.83
2019-05-01T02:54:27.159Z,969.90
2019-05-01T02:55:27.049Z,969.83
2019-05-01T02:56:26.960Z,969.82
2019-05-01T02:57:27.215Z,969.85
2019-05-01T02:58:27.235Z,969.88
2019-05-01T02:59:27.073Z,969.83
2019-05-01T03:00:27.110Z,969.88
2019-05-01T03:01:37.178Z,969.77
2019-05-01T03:02:27.196Z,969.81
2019-05-01T03:03:27.044Z,969.86
2019-05-01T03:04:27.200Z,969.88
2019-05-01T03:05:27.268Z,969.78
2019-05-01T03:06:27.035Z,969.86
2019-05-01T03:07:27.185Z,969.85
2019-05-01T03:08:27.279Z,969.83
2019-05-01T03:09:27.068Z,969.85
2019-05-01T03:10:27.028Z,969.82
2019-05-01T03:11:27.092Z,969.82
2019-05-01T03:12:27.100Z,969.80
2019-05-01T03:13:27.127Z,969.81
2019-05-01T03:14:27.171Z,969.81
2019-05-01T03:15:27.229Z,969.76
2019-05-01T03:16:27.331Z,969.83
2019-05-01T03:17:27.209Z,969.82
2019-05-01T03:18:27.241Z,969.83
2019-05-01T03:19:27.334Z,969.81
2019-05-01T03:20:27.182Z,969.77
2019-05-01T03:21:27.126Z,969.84
2019-05-01T03:22:27.054Z,969.76
2019-05-01T03:23:27.066Z,969.82
2019-05-01T03:24:27.092Z,969.80
2019-05-01T03:25:27.145Z,969.76
2019-05-01T03:26:27.119Z,969.83
2019-05-01T03:27:27.184Z,969.80
2019-05-01T03:28:27.134Z,969.82
2019-05-01T03:29:27.148Z,969.81
2019-05-01T03:30:27.175Z,969.79
2019-05-01T03:31:27.266Z,969.75
2019-05-01T03:32:27.582Z,969.76
2019-05-01T03:33:27.191Z,969.75
2019-05-01T03:34:27.177Z,969.78
2019-05-01T03:35:27.153Z,969.77
2019-05-01T03:36:27.080Z,969.72
2019-05-01T03:37:27.191Z,969.78
2019-05-01T03:38:27.149Z,969.75
2019-05-01T03:39:27.188Z,969.76
2019-05-01T03:40:27.051Z,969.72
2019-05-01T03:41:27.499Z,969.72
2019-05-01T03:42:27.143Z,969.87
2019-05-01T03:43:27.228Z,969.76
2019-05-01T03:44:27.075Z,969.74
2019-05-01T03:45:27.245Z,969.72
2019-05-01T03:46:27.125Z,969.71
2019-05-01T03:47:28.256Z,969.79
2019-05-01T03:48:27.165Z,969.70
2019-05-01T03:49:27.147Z,969.71
2019-05-01T03:50:27.254Z,969.70
2019-05-01T03:51:27.121Z,969.66
2019-05-01T03:52:27.399Z,969.73
2019-05-01T03:53:27.077Z,969.68
2019-05-01T03:54:27.189Z,969.69
2019-05-01T03:55:27.085Z,969.65
2019-05-01T03:56:27.666Z,969.70
2019-05-01T03:57:27.133Z,969.70
2019-05-01T03:58:27.142Z,969.73
2019-05-01T03:59:27.242Z,969.75
2019-05-01T04:00:27.141Z,969.70
2019-05-01T04:01:27.266Z,969.69
2019-05-01T04:02:33.453Z,969.68
2019-05-01T04:03:27.325Z,969.75
2019-05-01T04:04:27.200Z,969.75
2019-05-01T04:05:27.180Z,969.75
2019-05-01T04:06:27.226Z,969.76
2019-05-01T04:07:28.218Z,969.74
2019-05-01T04:08:27.144Z,969.71
2019-05-01T04:09:27.134Z,969.73
2019-05-01T04:10:27.132Z,969.69
2019-05-01T04:11:27.087Z,969.66
2019-05-01T04:12:27.246Z,969.73
2019-05-01T04:13:27.270Z,969.66
2019-05-01T04:14:27.332Z,969.63
2019-05-01T04:15:27.200Z,969.65
2019-05-01T04:16:27.201Z,969.68
2019-05-01T04:17:27.167Z,969.67
2019-05-01T04:18:27.295Z,969.69
2019-05-01T04:19:28.276Z,969.75
2019-05-01T04:20:27.253Z,969.68
2019-05-01T04:21:27.190Z,969.71
2019-05-01T04:22:27.206Z,969.73
2019-05-01T04:23:27.263Z,969.72
2019-05-01T04:24:27.082Z,969.73
2019-05-01T04:25:27.296Z,969.77
2019-05-01T04:26:27.099Z,969.75
2019-05-01T04:27:27.126Z,969.75
2019-05-01T04:28:27.183Z,969.82
2019-05-01T04:29:27.206Z,969.82
2019-05-01T04:30:27.157Z,969.90
2019-05-01T04:31:27.395Z,969.84
2019-05-01T04:32:27.223Z,969.86
2019-05-01T04:33:27.216Z,969.83
2019-05-01T04:34:27.193Z,969.81
2019-05-01T04:35:27.298Z,969.87
2019-05-01T04:36:27.302Z,969.85
2019-05-01T04:37:27.348Z,969.88
2019-05-01T04:38:27.214Z,969.88
2019-05-01T04:39:27.255Z,969.85
2019-05-01T04:40:27.329Z,969.88
2019-05-01T04:41:27.138Z,969.97
2019-05-01T04:42:27.304Z,969.95
2019-05-01T04:43:27.376Z,969.85
2019-05-01T04:44:27.288Z,969.85
2019-05-01T04:45:27.230Z,969.86
2019-05-01T04:46:27.322Z,969.95
2019-05-01T04:47:27.635Z,970.01
2019-05-01T04:48:27.484Z,969.85
2019-05-01T04:49:27.523Z,970.01
2019-05-01T04:50:27.437Z,969.98
2019-05-01T04:51:27.438Z,969.98
2019-05-01T04:52:27.402Z,969.94
2019-05-01T04:53:27.533Z,970.00
2019-05-01T04:54:27.430Z,970.01
2019-05-01T04:55:27.508Z,969.99
2019-05-01T04:56:27.471Z,969.99
2019-05-01T04:57:27.547Z,970.03
2019-05-01T04:58:27.607Z,970.06
2019-05-01T04:59:27.504Z,970.08
2019-05-01T05:00:27.448Z,970.04
2019-05-01T05:01:27.493Z,970.03
2019-05-01T05:02:27.529Z,970.03
2019-05-01T05:03:27.565Z,970.07
2019-05-01T05:04:27.630Z,970.05
2019-05-01T05:05:27.637Z,970.06
2019-05-01T05:06:27.526Z,970.04
2019-05-01T05:07:27.648Z,970.14
2019-05-01T05:08:27.571Z,970.04
2019-05-01T05:09:27.742Z,970.16
2019-05-01T05:10:27.685Z,970.11
2019-05-01T05:11:27.752Z,970.12
2019-05-01T05:12:27.749Z,970.04
2019-05-01T05:13:27.705Z,970.10
2019-05-01T05:14:27.663Z,970.10
2019-05-01T05:15:27.711Z,970.16
2019-05-01T05:16:28.009Z,970.15
2019-05-01T05:17:27.815Z,970.19
2019-05-01T05:18:28.083Z,970.12
2019-05-01T05:19:27.778Z,970.13
2019-05-01T05:20:27.922Z,970.07
2019-05-01T05:21:27.805Z,970.09
2019-05-01T05:22:27.778Z,970.13
2019-05-01T05:23:27.729Z,970.09
2019-05-01T05:24:27.744Z,970.09
2019-05-01T05:25:27.834Z,970.14
2019-05-01T05:26:27.820Z,970.12
2019-05-01T05:27:27.728Z,970.10
2019-05-01T05:28:27.910Z,970.10
2019-05-01T05:29:27.841Z,970.18
2019-05-01T05:30:27.795Z,970.17
2019-05-01T05:31:28.068Z,970.16
2019-05-01T05:32:27.811Z,970.18
2019-05-01T05:33:27.795Z,970.13
2019-05-01T05:34:28.156Z,970.21
2019-05-01T05:35:27.906Z,970.17
2019-05-01T05:36:28.099Z,970.23
2019-05-01T05:37:28.028Z,970.25
2019-05-01T05:38:28.021Z,970.24
2019-05-01T05:39:27.959Z,970.19
2019-05-01T05:40:28.015Z,970.22
2019-05-01T05:41:28.103Z,970.24
2019-05-01T05:42:28.096Z,970.32
2019-05-01T05:43:28.064Z,970.31
2019-05-01T05:44:28.095Z,970.29
2019-05-01T05:45:28.099Z,970.25
2019-05-01T05:46:27.985Z,970.28
2019-05-01T05:47:28.035Z,970.29
2019-05-01T05:48:28.197Z,970.25
2019-05-01T05:49:28.019Z,970.30
2019-05-01T05:50:28.004Z,970.28
2019-05-01T05:51:28.074Z,970.27
2019-05-01T05:52:28.037Z,970.29
2019-05-01T05:53:28.457Z,970.32
2019-05-01T05:54:28.105Z,970.31
2019-05-01T05:55:28.163Z,970.30
2019-05-01T05:56:28.065Z,970.29
2019-05-01T05:57:29.925Z,970.32
2019-05-01T05:58:28.288Z,970.27
2019-05-01T05:59:28.160Z,970.27
2019-05-01T06:00:28.143Z,970.31
2019-05-01T06:01:28.111Z,970.32
2019-05-01T06:02:28.207Z,970.31
2019-05-01T06:03:31.617Z,970.29
2019-05-01T06:04:28.273Z,970.33
2019-05-01T06:05:28.212Z,970.39
2019-05-01T06:06:28.161Z,970.28
2019-05-01T06:07:28.130Z,970.27
2019-05-01T06:08:28.091Z,970.35
2019-05-01T06:09:28.195Z,970.24
2019-05-01T06:10:28.202Z,970.33
2019-05-01T06:11:29.761Z,970.32
2019-05-01T06:12:28.205Z,970.34
2019-05-01T06:13:28.179Z,970.21
2019-05-01T06:14:31.411Z,970.28
2019-05-01T06:15:28.335Z,970.31
2019-05-01T06:16:29.255Z,970.27
2019-05-01T06:17:28.748Z,970.30
2019-05-01T06:18:28.279Z,970.32
2019-05-01T06:19:28.132Z,970.30
2019-05-01T06:20:28.158Z,970.29
2019-05-01T06:21:28.117Z,970.24
2019-05-01T06:22:28.153Z,970.36
2019-05-01T06:23:29.176Z,970.28
2019-05-01T06:24:28.198Z,970.32
2019-05-01T06:25:28.296Z,970.28
2019-05-01T06:26:31.938Z,970.27
2019-05-01T06:27:28.374Z,970.25
2019-05-01T06:28:29.735Z,970.26
2019-05-01T06:29:30.918Z,970.25
2019-05-01T06:30:28.152Z,970.31
2019-05-01T06:31:28.184Z,970.23
2019-05-01T06:32:28.831Z,970.26
2019-05-01T06:33:28.196Z,970.19
2019-05-01T06:34:28.668Z,970.14
2019-05-01T06:35:28.208Z,970.21
2019-05-01T06:36:28.215Z,970.17
2019-05-01T06:37:28.207Z,970.13
2019-05-01T06:38:31.474Z,970.19
2019-05-01T06:39:28.243Z,970.19
2019-05-01T06:40:28.087Z,970.27
2019-05-01T06:41:28.715Z,970.30
2019-05-01T06:42:28.253Z,970.27
2019-05-01T06:43:28.219Z,970.32
2019-05-01T06:44:28.186Z,970.28
2019-05-01T06:45:28.213Z,970.20
2019-05-01T06:46:29.113Z,970.30
2019-05-01T06:47:29.235Z,970.25
2019-05-01T06:48:28.279Z,970.29
2019-05-01T06:49:29.322Z,970.28
2019-05-01T06:50:28.252Z,970.23
2019-05-01T06:51:28.172Z,970.27
2019-05-01T06:52:29.304Z,970.21
2019-05-01T06:53:28.085Z,970.19
2019-05-01T06:54:28.264Z,970.26
2019-05-01T06:55:28.953Z,970.27
2019-05-01T06:56:28.229Z,970.29
2019-05-01T06:57:28.193Z,970.32
2019-05-01T06:58:28.264Z,970.34
2019-05-01T06:59:31.562Z,970.26
2019-05-01T07:00:28.197Z,970.32
2019-05-01T07:01:28.208Z,970.35
2019-05-01T07:02:29.933Z,970.35
2019-05-01T07:03:28.200Z,970.33
2019-05-01T07:04:32.422Z,970.34
2019-05-01T07:05:28.109Z,970.30
2019-05-01T07:06:31.036Z,970.30
2019-05-01T07:07:28.277Z,970.37
2019-05-01T07:08:29.592Z,970.30
2019-05-01T07:09:28.424Z,970.30
2019-05-01T07:10:30.890Z,970.31
2019-05-01T07:11:28.190Z,970.31
2019-05-01T07:12:29.808Z,970.31
2019-05-01T07:13:28.186Z,970.29
2019-05-01T07:14:28.185Z,970.27
2019-05-01T07:15:28.447Z,970.34
2019-05-01T07:16:28.250Z,970.31
2019-05-01T07:17:28.251Z,970.33
2019-05-01T07:18:29.221Z,970.37
2019-05-01T07:19:28.212Z,970.32
2019-05-01T07:20:28.295Z,970.36
2019-05-01T07:21:32.412Z,970.30
2019-05-01T07:22:28.156Z,970.30
2019-05-01T07:23:28.288Z,970.27
2019-05-01T07:24:29.090Z,970.31
2019-05-01T07:25:28.126Z,970.34
2019-05-01T07:26:28.242Z,970.41
2019-05-01T07:27:28.296Z,970.37
2019-05-01T07:28:32.359Z,970.20
2019-05-01T07:29:28.148Z,970.35
2019-05-01T07:30:28.223Z,970.42
2019-05-01T07:31:30.907Z,970.37
2019-05-01T07:32:28.404Z,970.37
2019-05-01T07:33:28.263Z,970.38
2019-05-01T07:34:28.285Z,970.26
2019-05-01T07:35:32.965Z,970.25
2019-05-01T07:36:28.288Z,970.36
2019-05-01T07:37:28.151Z,970.26
2019-05-01T07:38:28.303Z,970.24
2019-05-01T07:39:28.279Z,970.24
2019-05-01T07:40:30.101Z,970.22
2019-05-01T07:41:28.253Z,970.23
2019-05-01T07:42:28.182Z,970.23
2019-05-01T07:43:28.470Z,970.29
2019-05-01T07:44:30.070Z,970.29
2019-05-01T07:45:28.331Z,970.39
2019-05-01T07:46:28.116Z,970.17
2019-05-01T07:47:30.536Z,970.29
2019-05-01T07:48:28.105Z,970.35
2019-05-01T07:49:28.238Z,970.36
2019-05-01T07:50:31.576Z,970.27
2019-05-01T07:51:28.294Z,970.19
2019-05-01T07:52:28.321Z,970.27
2019-05-01T07:53:28.495Z,970.23
2019-05-01T07:54:28.475Z,970.23
2019-05-01T07:55:28.292Z,970.24
2019-05-01T07:56:29.971Z,970.25
2019-05-01T07:57:28.228Z,970.27
2019-05-01T07:58:28.223Z,970.28
2019-05-01T07:59:28.742Z,970.24
2019-05-01T08:00:28.381Z,970.25
2019-05-01T08:01:28.233Z,970.20
2019-05-01T08:02:31.162Z,970.29
2019-05-01T08:03:28.264Z,970.24
2019-05-01T08:05:28.457Z,970.29
2019-05-01T08:06:28.963Z,970.20
2019-05-01T08:07:32.418Z,970.25
2019-05-01T08:08:28.287Z,970.30
2019-05-01T08:09:28.330Z,970.25
2019-05-01T08:10:31.445Z,970.28
2019-05-01T08:11:28.664Z,970.20
2019-05-01T08:12:28.299Z,970.21
2019-05-01T08:13:30.708Z,970.27
2019-05-01T08:14:28.274Z,970.22
2019-05-01T08:15:32.380Z,970.20
2019-05-01T08:16:28.506Z,970.23
2019-05-01T08:17:28.511Z,970.23
2019-05-01T08:18:29.282Z,970.22
2019-05-01T08:19:28.168Z,970.31
2019-05-01T08:20:28.287Z,970.27
2019-05-01T08:21:28.332Z,970.24
2019-05-01T08:22:32.048Z,970.23
2019-05-01T08:23:28.285Z,970.34
2019-05-01T08:24:28.330Z,970.25
2019-05-01T08:25:28.677Z,970.19
2019-05-01T08:26:28.317Z,970.16
2019-05-01T08:27:28.455Z,970.20
2019-05-01T08:28:32.054Z,970.20
2019-05-01T08:29:28.305Z,970.12
2019-05-01T08:30:28.225Z,970.01
2019-05-01T08:31:29.109Z,970.10
2019-05-01T08:32:28.389Z,970.08
2019-05-01T08:33:28.436Z,970.09
2019-05-01T08:34:29.804Z,970.07
2019-05-01T08:35:31.857Z,970.08
2019-05-01T08:36:28.442Z,969.98
2019-05-01T08:37:28.339Z,970.08
2019-05-01T08:38:29.888Z,970.04
2019-05-01T08:39:28.337Z,969.99
2019-05-01T08:40:28.417Z,970.01
2019-05-01T08:41:31.841Z,969.97
2019-05-01T08:42:28.499Z,970.02
2019-05-01T08:43:28.247Z,970.03
2019-05-01T08:44:29.631Z,970.01
2019-05-01T08:45:28.880Z,969.94
2019-05-01T08:46:28.414Z,969.98
2019-05-01T08:47:28.286Z,969.93
2019-05-01T08:48:30.774Z,970.01
2019-05-01T08:49:28.507Z,969.88
2019-05-01T08:50:28.395Z,969.98
2019-05-01T08:51:30.161Z,969.97
2019-05-01T08:52:28.351Z,969.96
2019-05-01T08:53:28.411Z,969.93
2019-05-01T08:54:28.815Z,969.93
2019-05-01T08:55:28.408Z,969.91
2019-05-01T08:56:28.308Z,969.94
2019-05-01T08:57:29.022Z,969.91
2019-05-01T08:58:28.277Z,969.86
2019-05-01T08:59:28.389Z,969.81
2019-05-01T09:00:30.982Z,969.88
2019-05-01T09:01:28.339Z,969.84
2019-05-01T09:02:28.600Z,969.90
2019-05-01T09:03:28.311Z,969.94
2019-05-01T09:04:30.593Z,969.89
2019-05-01T09:05:31.281Z,969.90
2019-05-01T09:06:34.848Z,969.91
2019-05-01T09:07:28.428Z,969.93
2019-05-01T09:08:31.956Z,969.97
2019-05-01T09:09:28.351Z,969.79
2019-05-01T09:10:28.370Z,969.83
2019-05-01T09:11:31.846Z,969.75
2019-05-01T09:12:28.350Z,969.83
2019-05-01T09:13:28.242Z,969.81
2019-05-01T09:14:29.724Z,969.76
2019-05-01T09:15:28.393Z,969.79
2019-05-01T09:16:30.102Z,969.70
2019-05-01T09:17:28.401Z,969.73
2019-05-01T09:18:28.457Z,969.76
2019-05-01T09:19:28.377Z,969.74
2019-05-01T09:20:32.085Z,969.71
2019-05-01T09:21:28.400Z,969.69
2019-05-01T09:22:28.581Z,969.74
2019-05-01T09:23:28.335Z,969.73
2019-05-01T09:24:29.409Z,969.69
2019-05-01T09:25:30.985Z,969.70
2019-05-01T09:26:28.627Z,969.65
2019-05-01T09:27:29.279Z,969.65
2019-05-01T09:28:28.401Z,969.59
2019-05-01T09:29:28.924Z,969.68
2019-05-01T09:30:28.821Z,969.70
2019-05-01T09:31:28.394Z,969.68
2019-05-01T09:32:28.351Z,969.54
2019-05-01T09:33:30.883Z,969.62
2019-05-01T09:34:28.373Z,969.55
2019-05-01T09:35:28.307Z,969.57
2019-05-01T09:36:28.388Z,969.53
2019-05-01T09:37:28.384Z,969.61
2019-05-01T09:38:28.365Z,969.54
2019-05-01T09:39:28.415Z,969.59
2019-05-01T09:40:28.417Z,969.59
2019-05-01T09:41:38.097Z,969.54
2019-05-01T09:42:28.431Z,969.58
2019-05-01T09:43:30.898Z,969.58
2019-05-01T09:44:28.541Z,969.53
2019-05-01T09:45:28.419Z,969.58
2019-05-01T09:46:28.469Z,969.53
2019-05-01T09:47:28.311Z,969.54
2019-05-01T09:48:28.312Z,969.49
2019-05-01T09:49:28.477Z,969.51
2019-05-01T09:50:30.436Z,969.51
2019-05-01T09:51:28.394Z,969.39
2019-05-01T09:52:28.429Z,969.50
2019-05-01T09:53:29.764Z,969.44
2019-05-01T09:54:28.421Z,969.43
2019-05-01T09:55:28.588Z,969.44
2019-05-01T09:56:28.370Z,969.40
2019-05-01T09:57:28.478Z,969.48
2019-05-01T09:58:28.462Z,969.52
2019-05-01T09:59:28.389Z,969.52
2019-05-01T10:00:28.419Z,969.49
2019-05-01T10:01:32.045Z,969.42
2019-05-01T10:02:28.410Z,969.49
2019-05-01T10:03:28.317Z,969.44
2019-05-01T10:04:30.226Z,969.42
2019-05-01T10:05:29.263Z,969.43
2019-05-01T10:06:28.836Z,969.56
2019-05-01T10:07:29.105Z,969.55
2019-05-01T10:08:28.399Z,969.46
2019-05-01T10:09:28.388Z,969.40
2019-05-01T10:10:29.373Z,969.43
2019-05-01T10:11:28.408Z,969.48
2019-05-01T10:12:28.481Z,969.46
2019-05-01T10:13:28.383Z,969.49
2019-05-01T10:14:31.630Z,969.46
2019-05-01T10:15:28.432Z,969.47
2019-05-01T10:16:28.496Z,969.52
2019-05-01T10:17:28.460Z,969.43
2019-05-01T10:18:28.621Z,969.41
2019-05-01T10:19:28.412Z,969.39
2019-05-01T10:20:28.798Z,969.30
2019-05-01T10:21:28.905Z,969.41
2019-05-01T10:22:28.444Z,969.34
2019-05-01T10:23:28.397Z,969.41
2019-05-01T10:24:31.941Z,969.34
2019-05-01T10:25:28.457Z,969.33
2019-05-01T10:26:28.470Z,969.28
2019-05-01T10:27:30.859Z,969.23
2019-05-01T10:28:28.560Z,969.28
2019-05-01T10:29:28.456Z,969.33
2019-05-01T10:30:31.729Z,969.24
2019-05-01T10:31:28.516Z,969.30
2019-05-01T10:32:28.439Z,969.20
2019-05-01T10:33:29.079Z,969.26
2019-05-01T10:34:28.622Z,969.27
2019-05-01T10:35:41.558Z,969.16
2019-05-01T10:36:28.501Z,969.18
2019-05-01T10:37:33.155Z,969.25
2019-05-01T10:38:28.414Z,969.21
2019-05-01T10:39:30.196Z,969.25
2019-05-01T10:40:32.241Z,969.23
2019-05-01T10:41:28.584Z,969.24
2019-05-01T10:42:28.481Z,969.12
2019-05-01T10:43:28.484Z,969.18
2019-05-01T10:44:28.486Z,969.14
2019-05-01T10:45:28.469Z,969.03
2019-05-01T10:46:28.467Z,968.99
2019-05-01T10:47:28.536Z,969.01
2019-05-01T10:48:28.487Z,968.94
2019-05-01T10:49:28.550Z,968.96
2019-05-01T10:50:28.648Z,968.98
2019-05-01T10:51:28.497Z,968.95
2019-05-01T10:52:28.428Z,968.97
2019-05-01T10:53:28.461Z,968.80
2019-05-01T10:54:28.469Z,968.84
2019-05-01T10:55:28.407Z,968.88
2019-05-01T10:56:28.426Z,968.83
2019-05-01T10:57:28.509Z,968.78
2019-05-01T10:58:28.648Z,968.85
2019-05-01T10:59:28.455Z,968.84
2019-05-01T11:00:28.447Z,968.87
2019-05-01T11:01:28.750Z,968.78
2019-05-01T11:02:28.401Z,968.79
2019-05-01T11:03:28.485Z,968.78
2019-05-01T11:04:28.491Z,968.70
2019-05-01T11:05:28.534Z,968.69
2019-05-01T11:06:28.528Z,968.68
2019-05-01T11:07:29.063Z,968.62
2019-05-01T11:08:31.075Z,968.64
2019-05-01T11:09:28.612Z,968.67
2019-05-01T11:10:28.611Z,968.73
2019-05-01T11:11:28.541Z,968.67
2019-05-01T11:12:28.676Z,968.61
2019-05-01T11:13:28.505Z,968.63
2019-05-01T11:14:28.512Z,968.61
2019-05-01T11:15:28.519Z,968.62
2019-05-01T11:16:28.630Z,968.63
2019-05-01T11:17:28.400Z,968.66
2019-05-01T11:18:28.764Z,968.75
2019-05-01T11:19:29.734Z,968.76
2019-05-01T11:20:28.581Z,968.65
2019-05-01T11:21:28.502Z,968.71
2019-05-01T11:22:28.575Z,968.58
2019-05-01T11:23:28.714Z,968.52
2019-05-01T11:24:28.743Z,968.62
2019-05-01T11:25:28.622Z,968.54
2019-05-01T11:26:28.539Z,968.53
2019-05-01T11:27:28.546Z,968.65
2019-05-01T11:28:28.523Z,968.57
2019-05-01T11:29:28.545Z,968.53
2019-05-01T11:30:28.458Z,968.64
2019-05-01T11:31:28.584Z,968.56
2019-05-01T11:32:28.500Z,968.55
2019-05-01T11:33:28.537Z,968.51
2019-05-01T11:34:28.719Z,968.55
2019-05-01T11:35:28.908Z,968.48
2019-05-01T11:36:28.641Z,968.52
2019-05-01T11:37:28.599Z,968.51
2019-05-01T11:38:28.611Z,968.51
2019-05-01T11:39:28.523Z,968.50
2019-05-01T11:40:28.483Z,968.54
2019-05-01T11:41:28.668Z,968.47
2019-05-01T11:42:28.924Z,968.52
2019-05-01T11:43:28.558Z,968.49
2019-05-01T11:44:28.677Z,968.48
2019-05-01T11:45:28.641Z,968.44
2019-05-01T11:46:28.648Z,968.37
2019-05-01T11:47:28.520Z,968.43
2019-05-01T11:48:30.236Z,968.37
2019-05-01T11:49:28.526Z,968.36
2019-05-01T11:50:28.616Z,968.40
2019-05-01T11:51:28.513Z,968.42
2019-05-01T11:52:28.756Z,968.42
2019-05-01T11:53:28.489Z,968.42
2019-05-01T11:54:28.608Z,968.34
2019-05-01T11:55:28.619Z,968.31
2019-05-01T11:56:28.660Z,968.30
2019-05-01T11:57:28.622Z,968.27
2019-05-01T11:58:28.537Z,968.26
2019-05-01T11:59:28.611Z,968.30
2019-05-01T12:00:28.610Z,968.28
2019-05-01T12:01:28.670Z,968.27
2019-05-01T12:02:28.710Z,968.27
2019-05-01T12:03:28.610Z,968.23
2019-05-01T12:04:28.496Z,968.28
2019-05-01T12:05:28.617Z,968.21
2019-05-01T12:06:28.635Z,968.19
2019-05-01T12:07:28.786Z,968.28
2019-05-01T12:08:28.585Z,968.16
2019-05-01T12:09:28.625Z,968.17
2019-05-01T12:10:28.545Z,968.13
2019-05-01T12:11:28.744Z,968.18
2019-05-01T12:12:28.586Z,968.23
2019-05-01T12:13:28.614Z,968.15
2019-05-01T12:14:28.544Z,968.19
2019-05-01T12:15:28.716Z,968.22
2019-05-01T12:16:28.758Z,968.14
2019-05-01T12:17:28.607Z,968.17
2019-05-01T12:18:28.812Z,968.25
2019-05-01T12:19:28.532Z,968.19
2019-05-01T12:20:28.616Z,968.07
2019-05-01T12:21:28.561Z,968.14
2019-05-01T12:22:29.430Z,968.15
2019-05-01T12:23:28.681Z,968.12
2019-05-01T12:24:28.892Z,968.12
2019-05-01T12:25:28.663Z,968.06
2019-05-01T12:26:28.622Z,968.06
2019-05-01T12:27:28.586Z,968.01
2019-05-01T12:28:28.722Z,968.00
2019-05-01T12:29:28.843Z,968.02